Stations météo

réclame
Mon MeteoGroup
Dourbes, Belgique (6455): Température de l'air & dewpoint: 17.09.2017 23:00:00 - 23.09.2017 23:00:00 (CEST)Dourbes, Belgique (6455): Vitesse du vent & gusts: 17.09.2017 23:00:00 - 23.09.2017 23:00:00 (CEST)Dourbes, Belgique (6455): Direction du vent: 17.09.2017 23:00:00 - 23.09.2017 23:00:00 (CEST)Dourbes, Belgique (6455): reduced air pressure: 17.09.2017 23:00:00 - 23.09.2017 23:00:00 (CEST)Dourbes, Belgique (6455): Ensoleillement: 17.09.2017 23:00:00 - 23.09.2017 23:00:00 (CEST)Dourbes, Belgique (6455): Quantités de précipitations: 17.09.2017 23:00:00 - 23.09.2017 23:00:00 (CEST)
Date & Time tt [°C] td [°C] ff [km/h] ff [knt] fx [km/h] fx [knt] dd ppp [hPa] sd [min] rr [mm]
23.09.2017 23:00:00 9,7 8,9 4 2 - - E 1022,0 - -
23.09.2017 22:00:00 10,0 9,1 4 2 4 2 E 1022,1 0 0,0
23.09.2017 21:00:00 11,3 9,2 4 2 6 4 E 1021,8 0 0,0
23.09.2017 20:00:00 13,0 9,6 4 2 6 4 ENE 1021,3 0 0,0
23.09.2017 19:00:00 15,6 9,3 4 2 9 5 N 1021,0 34 0,0
23.09.2017 18:00:00 17,4 9,4 4 2 9 5 NNE 1020,7 51 0,0
23.09.2017 17:00:00 17,0 9,6 4 2 10 5 N 1021,2 55 0,0
23.09.2017 16:00:00 18,3 9,9 4 2 17 9 ESE 1021,5 60 0,0
23.09.2017 15:00:00 17,1 9,7 6 3 14 8 NNE 1022,2 59 0,0
23.09.2017 14:00:00 16,7 11,5 7 4 16 8 NE 1022,6 60 0,0
23.09.2017 13:00:00 14,5 11,6 8 4 16 9 NE 1023,0 60 0,0
23.09.2017 12:00:00 13,0 13,0 4 2 13 7 NNE 1023,4 44 0,0
23.09.2017 11:00:00 11,2 11,2 4 2 8 5 NE 1023,8 5 0,0
23.09.2017 10:00:00 9,9 9,9 4 2 9 5 E 1023,8 0 0,0
23.09.2017 09:00:00 9,4 9,4 4 2 5 3 E 1023,7 0 0,0
23.09.2017 08:00:00 9,0 9,0 4 2 7 4 ESE 1023,6 0 0,0
23.09.2017 07:00:00 8,8 8,8 4 2 5 3 ENE 1023,6 0 0,0
23.09.2017 06:00:00 8,4 8,4 4 2 5 3 ESE 1023,8 0 0,0
23.09.2017 05:00:00 8,3 8,3 4 2 4 2 ENE 1023,8 0 0,0
23.09.2017 04:00:00 7,7 7,7 0 0 3 2 N 1023,9 0 0,0
23.09.2017 03:00:00 7,2 7,2 0 0 3 2 N 1023,9 0 0,0
23.09.2017 02:00:00 7,5 7,4 0 0 4 2 N 1023,7 0 0,0
23.09.2017 01:00:00 9,0 8,9 4 2 6 3 SSE 1023,4 0 0,0
23.09.2017 00:00:00 10,0 9,9 4 2 10 5 WSW 1023,2 0 0,0
22.09.2017 23:00:00 10,0 9,7 0 0 4 2 N 1023,1 0 0,0
22.09.2017 22:00:00 11,0 10,5 0 0 3 2 N 1022,8 0 0,0
22.09.2017 21:00:00 12,1 11,3 4 2 5 3 SSE 1022,4 0 0,0
22.09.2017 20:00:00 13,5 11,6 4 2 6 4 NW 1021,5 0 0,0
22.09.2017 19:00:00 15,9 12,5 4 2 9 5 WNW 1020,9 34 0,0
22.09.2017 18:00:00 16,6 13,3 4 2 12 7 NNW 1020,5 12 0,0
22.09.2017 17:00:00 16,8 13,0 4 2 13 7 NW 1020,5 0 0,0
22.09.2017 16:00:00 17,4 12,6 7 4 12 7 WNW 1020,4 12 0,0
22.09.2017 15:00:00 17,6 11,4 6 4 14 7 NW 1020,2 16 0,0
22.09.2017 14:00:00 16,8 11,9 4 2 10 6 WSW 1020,2 0 0,0
22.09.2017 13:00:00 16,1 11,7 5 3 10 6 SW 1020,1 30 0,0
22.09.2017 12:00:00 14,8 12,0 4 2 5 3 NNE 1020,1 46 0,0
22.09.2017 11:00:00 12,4 10,5 4 2 5 3 S 1020,2 53 0,0
22.09.2017 10:00:00 9,4 9,4 4 2 4 2 E 1020,4 60 0,0
22.09.2017 09:00:00 6,6 6,6 4 2 4 2 NNE 1020,3 46 0,0
22.09.2017 08:00:00 4,7 4,7 0 0 6 3 N 1020,2 1 0,0
22.09.2017 07:00:00 5,0 4,9 0 0 4 2 N 1019,8 0 0,0
22.09.2017 06:00:00 5,1 5,0 0 0 3 2 N 1019,8 0 0,0
22.09.2017 05:00:00 5,8 5,7 0 0 5 3 N 1019,7 0 0,0
22.09.2017 04:00:00 6,3 6,2 4 2 5 3 E 1019,5 0 0,0
22.09.2017 03:00:00 7,1 6,9 4 2 6 3 ESE 1019,7 0 0,0
22.09.2017 02:00:00 7,7 7,4 4 2 5 3 E 1019,6 0 0,0
22.09.2017 01:00:00 8,4 8,0 4 2 5 3 E 1019,4 0 0,0
22.09.2017 00:00:00 9,1 8,6 4 2 5 3 E 1019,3 0 0,0
21.09.2017 23:00:00 10,0 9,4 4 2 5 3 E 1019,2 0 0,0
21.09.2017 22:00:00 10,7 9,5 4 2 4 2 E 1019,1 0 0,0
21.09.2017 21:00:00 11,8 9,6 0 0 6 3 N 1018,8 0 0,0
21.09.2017 20:00:00 13,9 9,9 4 2 7 4 ESE 1018,1 0 0,0
21.09.2017 19:00:00 15,7 9,8 6 4 14 7 SSE 1017,8 21 0,0
21.09.2017 18:00:00 16,6 9,5 11 6 19 10 SSE 1017,6 60 0,0
21.09.2017 17:00:00 17,7 9,3 10 6 20 11 SSE 1017,6 60 0,0
21.09.2017 16:00:00 18,3 9,4 13 7 21 12 S 1017,7 60 0,0
21.09.2017 15:00:00 18,0 8,3 12 7 23 12 S 1018,2 60 0,0
21.09.2017 14:00:00 17,3 8,8 11 6 27 15 S 1018,6 60 0,0
21.09.2017 13:00:00 16,7 8,6 12 7 24 13 S 1019,0 60 0,0
21.09.2017 12:00:00 15,4 8,8 11 6 18 10 SSE 1019,6 - -
21.09.2017 11:00:00 13,6 9,2 8 5 13 7 SSE 1019,9 60 0,0
21.09.2017 10:00:00 11,0 8,7 4 2 10 5 SSE 1020,1 60 0,0
21.09.2017 09:00:00 8,8 8,0 6 3 11 6 SSE 1020,1 54 0,0
21.09.2017 08:00:00 6,7 6,4 4 2 5 3 E 1020,4 5 0,0
21.09.2017 07:00:00 7,2 6,4 4 2 11 6 E 1020,3 0 0,0
21.09.2017 06:00:00 7,4 6,8 4 2 5 3 SE 1020,3 0 0,0
21.09.2017 05:00:00 8,1 7,0 4 2 11 6 ESE 1020,4 0 0,0
21.09.2017 04:00:00 9,0 7,7 6 3 10 5 SSE 1020,6 0 0,0
21.09.2017 03:00:00 9,4 7,7 5 3 11 6 SSE 1020,7 0 0,0
21.09.2017 02:00:00 9,5 7,8 7 4 12 7 SSE 1020,8 0 0,0
21.09.2017 01:00:00 8,7 7,5 4 2 7 4 S 1020,8 0 0,0
21.09.2017 00:00:00 10,2 7,9 4 2 11 6 SSE 1020,8 0 0,0
20.09.2017 23:00:00 9,7 7,9 4 2 8 4 SSE 1020,8 0 0,0
20.09.2017 22:00:00 10,4 8,5 6 3 11 6 SE 1020,8 0 0,0
20.09.2017 21:00:00 10,7 8,5 4 2 9 5 SSE 1020,9 0 0,0
20.09.2017 20:00:00 12,2 9,2 7 4 17 9 S 1020,6 0 0,0
20.09.2017 19:00:00 14,0 9,3 10 5 16 9 S 1020,2 31 0,0
20.09.2017 18:00:00 15,0 9,6 8 4 21 11 SSW 1020,3 50 0,0
20.09.2017 17:00:00 14,6 9,4 8 4 17 9 SSW 1020,6 24 0,0
20.09.2017 16:00:00 15,0 9,8 8 4 18 10 SW 1020,8 18 0,0
20.09.2017 15:00:00 14,8 9,8 10 5 21 11 SW 1021,1 20 0,0
20.09.2017 14:00:00 14,1 9,9 10 6 23 12 WSW 1021,4 17 0,0
20.09.2017 13:00:00 14,1 9,9 13 7 26 14 SSW 1021,7 25 0,0
20.09.2017 12:00:00 13,4 9,9 12 6 25 13 SW 1021,7 46 0,0
20.09.2017 11:00:00 12,4 9,7 10 5 18 10 SSW 1021,8 49 0,0
20.09.2017 10:00:00 10,8 9,8 7 4 14 8 SSW 1022,0 60 0,0
20.09.2017 09:00:00 8,3 8,3 4 2 6 3 S 1022,1 54 0,0
20.09.2017 08:00:00 7,4 7,2 0 0 4 2 N 1021,9 0 0,0
20.09.2017 07:00:00 8,4 8,2 4 2 11 6 WSW 1021,5 0 0,0
20.09.2017 06:00:00 9,4 9,4 5 3 10 6 WSW 1021,5 0 0,0
20.09.2017 05:00:00 9,8 9,7 4 2 8 4 SSW 1021,5 0 0,0
20.09.2017 04:00:00 9,8 9,7 5 3 8 5 SW 1021,6 0 0,0
20.09.2017 03:00:00 9,6 9,3 4 2 7 4 SSW 1021,6 0 0,0
20.09.2017 02:00:00 10,2 9,8 4 2 9 5 SW 1021,7 0 0,0
20.09.2017 01:00:00 10,8 10,4 4 2 11 6 WSW 1021,8 0 0,0
20.09.2017 00:00:00 10,8 10,4 6 3 13 7 W 1021,7 0 0,0
19.09.2017 23:00:00 10,6 9,9 5 3 9 5 WSW 1021,7 0 0,0
19.09.2017 22:00:00 10,7 9,5 4 2 5 3 SSW 1021,4 0 0,0
19.09.2017 21:00:00 11,3 9,5 4 2 8 5 WNW 1020,8 0 0,0
19.09.2017 20:00:00 12,1 9,4 7 4 10 5 WNW 1020,2 0 0,0
19.09.2017 19:00:00 14,2 9,3 5 3 16 9 NW 1019,4 35 0,0
19.09.2017 18:00:00 15,6 9,8 5 3 19 10 NW 1018,6 35 0,0
19.09.2017 17:00:00 16,2 9,7 9 5 18 10 WNW 1018,5 52 0,0
19.09.2017 16:00:00 15,5 9,2 6 4 15 8 NNW 1018,6 25 0,0
19.09.2017 15:00:00 15,1 9,8 9 5 19 11 NW 1018,5 38 0,0
19.09.2017 14:00:00 13,8 10,2 7 4 14 7 NW 1018,9 17 0,0
19.09.2017 13:00:00 12,8 10,6 6 3 12 6 WSW 1018,9 14 0,0
19.09.2017 12:00:00 11,6 10,3 6 4 12 7 WNW 1018,7 0 0,0
19.09.2017 11:00:00 11,2 11,2 6 3 12 6 W 1018,2 5 0,0
19.09.2017 10:00:00 9,9 9,9 5 3 13 7 WSW 1017,7 0 0,0
19.09.2017 09:00:00 9,4 9,4 5 3 12 7 WSW 1017,3 0 0,0
19.09.2017 08:00:00 8,8 8,8 7 4 13 7 WSW 1017,3 0 0,0
19.09.2017 07:00:00 8,9 8,9 6 4 14 7 W 1016,9 0 0,1
19.09.2017 06:00:00 9,1 9,1 7 4 13 7 WSW 1016,6 0 0,0
19.09.2017 05:00:00 9,2 9,2 6 3 15 8 W 1016,6 0 0,0
19.09.2017 04:00:00 9,4 9,4 5 3 12 7 SW 1016,6 0 0,0
19.09.2017 03:00:00 9,6 9,6 6 3 16 9 WSW 1016,8 0 0,0
19.09.2017 02:00:00 9,6 9,6 7 4 14 8 W 1016,7 0 0,0
19.09.2017 01:00:00 9,0 8,9 5 3 11 6 SW 1016,4 0 0,0
19.09.2017 00:00:00 8,9 8,9 8 4 13 7 WSW 1016,7 0 0,0
18.09.2017 23:00:00 8,2 7,9 5 3 10 5 SW 1016,7 0 0,0
18.09.2017 22:00:00 9,1 8,7 5 3 13 7 SW 1016,5 0 0,0
18.09.2017 21:00:00 9,8 9,2 4 2 12 7 SW 1016,2 0 0,0
18.09.2017 20:00:00 9,9 9,2 7 4 13 7 WSW 1015,8 0 0,0
18.09.2017 19:00:00 10,6 9,6 6 3 16 9 WSW 1015,6 0 0,0
18.09.2017 18:00:00 11,5 10,5 7 4 18 10 SW 1014,9 12 0,1
18.09.2017 17:00:00 12,4 11,7 9 5 16 8 SSW 1014,9 16 4,6
18.09.2017 16:00:00 12,5 9,8 5 3 23 12 W 1015,1 7 0,1
18.09.2017 15:00:00 12,7 9,7 12 7 28 15 SSW 1015,0 8 0,0
18.09.2017 14:00:00 12,7 9,4 18 10 27 14 SSW 1015,0 29 0,0
18.09.2017 13:00:00 12,5 10,5 12 6 22 12 SW 1014,9 11 0,0
18.09.2017 12:00:00 11,0 10,5 8 4 16 9 SW 1015,2 15 0,0
18.09.2017 11:00:00 9,6 9,6 10 5 17 9 SSW 1015,3 0 0,0
18.09.2017 10:00:00 8,8 8,8 5 3 10 5 SSW 1015,2 1 0,0
18.09.2017 09:00:00 7,4 7,4 4 2 6 3 S 1015,1 0 0,0
18.09.2017 08:00:00 6,5 6,5 4 2 8 4 SSW 1015,0 0 0,0
18.09.2017 07:00:00 5,2 5,1 5 3 7 4 SSW 1014,8 0 0,0
18.09.2017 06:00:00 5,7 5,7 4 2 7 4 SSW 1014,5 0 0,0
18.09.2017 05:00:00 6,2 6,1 4 2 6 3 S 1014,4 0 0,0
18.09.2017 04:00:00 6,2 6,1 0 0 8 4 N 1014,4 0 0,0
18.09.2017 03:00:00 6,8 6,7 5 3 9 5 SW 1014,3 0 0,0
18.09.2017 02:00:00 7,1 6,9 4 2 5 3 S 1014,4 0 0,0
18.09.2017 01:00:00 7,1 6,8 4 2 6 3 SW 1014,4 0 0,0
18.09.2017 00:00:00 8,1 7,5 4 2 7 4 SSW 1014,3 0 0,0
17.09.2017 23:00:00 9,0 8,1 4 2 14 8 S 1014,2 0 0,0

tt = Température de l'air
td = dewpoint
ff = Vitesse du vent
fx = gusts
dd = Direction du vent
ppp = reduced air pressure
sd = Ensoleillement
rr = Quantités de précipitations

stations d'obs. à proximité